Time;durP1;ratioP1;P1;durP2;ratioP2;P2;SDS_P1;SDS_P2;PMS_P1;PMS_P2;Temp;Humidity;BMP_temperature;BMP_pressure;BME280_temperature;BME280_humidity;BME280_pressure;Samples;Min_cycle;Max_cycle;Signal;HPM_P1;HPM_P2
2021/10/16 00:00:08;;;;;;;6.07;5.47;;;11.40;99.90;;;;;;5073232;28;20203;-56
2021/10/16 00:02:33;;;;;;;6.60;5.50;;;11.30;99.90;;;;;;5072765;28;20165;-53
2021/10/16 00:04:59;;;;;;;5.77;5.27;;;11.40;99.90;;;;;;5070737;28;20758;-49
2021/10/16 00:07:24;;;;;;;6.03;5.50;;;11.30;99.90;;;;;;5062061;28;20194;-49
2021/10/16 00:09:50;;;;;;;5.97;5.00;;;11.30;99.90;;;;;;5059222;28;20167;-51
2021/10/16 00:12:16;;;;;;;6.90;6.20;;;11.30;99.90;;;;;;5052814;28;20163;-50
2021/10/16 00:14:42;;;;;;;5.93;5.43;;;11.20;99.90;;;;;;5054321;28;20232;-49
2021/10/16 00:17:08;;;;;;;5.37;4.90;;;11.20;99.90;;;;;;5056843;28;20200;-49
2021/10/16 00:19:34;;;;;;;6.17;5.57;;;11.30;99.90;;;;;;5056645;28;20173;-49
2021/10/16 00:21:59;;;;;;;10.20;6.13;;;11.30;99.90;;;;;;5057076;28;20172;-50
2021/10/16 00:24:25;;;;;;;6.53;5.93;;;11.20;99.90;;;;;;5056785;28;20487;-54
2021/10/16 00:26:50;;;;;;;7.83;7.07;;;11.20;99.90;;;;;;5062364;28;20201;-55
2021/10/16 00:29:16;;;;;;;8.73;7.90;;;11.10;99.90;;;;;;5076423;28;20171;-54
2021/10/16 00:31:41;;;;;;;8.23;7.43;;;11.00;99.90;;;;;;5076647;28;20196;-51
2021/10/16 00:34:07;;;;;;;7.10;6.40;;;11.00;99.90;;;;;;5076563;28;20198;-55
2021/10/16 00:36:33;;;;;;;9.00;8.10;;;10.90;99.90;;;;;;5076887;28;20201;-55
2021/10/16 00:38:58;;;;;;;8.23;7.43;;;11.00;99.90;;;;;;5076584;28;20259;-49
2021/10/16 00:41:24;;;;;;;7.93;7.23;;;11.00;99.90;;;;;;5076728;28;20647;-54
2021/10/16 00:44:19;;;;;;;8.70;7.73;;;11.10;99.90;;;;;;5076116;28;20631;-54
2021/10/16 00:46:46;;;;;;;8.37;7.57;;;11.10;99.90;;;;;;5076388;28;20177;-55
2021/10/16 00:49:12;;;;;;;6.63;5.93;;;11.20;99.90;;;;;;5076004;28;20396;-52
2021/10/16 00:51:39;;;;;;;9.10;8.20;;;11.20;99.90;;;;;;5076129;28;20410;-55
2021/10/16 00:54:09;;;;;;;7.87;6.57;;;11.20;99.90;;;;;;5076541;28;20449;-50
2021/10/16 00:56:39;;;;;;;9.10;7.83;;;11.30;99.90;;;;;;5076237;28;20572;-54
2021/10/16 00:59:05;;;;;;;8.40;7.50;;;11.30;99.90;;;;;;5076230;28;20392;-52
2021/10/16 01:01:32;;;;;;;8.07;6.77;;;11.30;99.90;;;;;;5076295;28;20398;-50
2021/10/16 01:03:59;;;;;;;8.67;7.17;;;11.30;99.90;;;;;;5060289;28;20479;-55
2021/10/16 01:06:25;;;;;;;8.40;7.00;;;11.30;99.90;;;;;;5056252;28;20401;-55
2021/10/16 01:08:52;;;;;;;8.97;7.83;;;11.30;99.90;;;;;;5055832;28;20421;-55
2021/10/16 01:11:20;;;;;;;12.17;8.57;;;11.30;99.90;;;;;;5055865;28;20635;-52
2021/10/16 01:13:46;;;;;;;8.30;7.50;;;11.30;99.90;;;;;;5054672;28;20805;-52
2021/10/16 01:16:12;;;;;;;7.27;6.67;;;11.40;99.90;;;;;;5056452;28;20454;-51
2021/10/16 01:18:37;;;;;;;9.90;6.97;;;11.50;99.90;;;;;;5055801;28;20651;-50
2021/10/16 01:21:08;;;;;;;7.73;6.80;;;11.60;99.90;;;;;;5055819;28;20167;-55
2021/10/16 01:23:35;;;;;;;7.53;6.83;;;11.70;99.90;;;;;;5055740;28;20166;-51
2021/10/16 01:26:01;;;;;;;6.60;5.90;;;11.70;99.90;;;;;;5054888;28;20458;-54
2021/10/16 01:28:28;;;;;;;7.90;6.47;;;11.70;99.90;;;;;;5074445;28;20436;-52
2021/10/16 01:30:56;;;;;;;7.83;7.07;;;11.70;99.90;;;;;;5075578;28;20787;-53
2021/10/16 01:33:28;;;;;;;8.60;6.57;;;11.80;99.90;;;;;;5075445;28;20442;-52
2021/10/16 01:36:02;;;;;;;7.30;6.60;;;11.80;99.90;;;;;;5075623;28;20389;-52
2021/10/16 01:38:29;;;;;;;8.83;7.93;;;11.90;99.90;;;;;;5075695;28;20424;-50
2021/10/16 01:40:55;;;;;;;9.17;8.00;;;11.90;99.90;;;;;;5075617;28;20479;-50
2021/10/16 01:43:21;;;;;;;10.43;9.10;;;12.00;99.90;;;;;;5075053;28;20458;-52
2021/10/16 01:45:46;;;;;;;9.53;8.63;;;11.90;99.90;;;;;;5075550;28;20415;-54
2021/10/16 01:48:12;;;;;;;10.70;8.00;;;12.00;99.90;;;;;;5075004;28;20424;-53
2021/10/16 01:50:42;;;;;;;9.10;8.20;;;12.00;99.90;;;;;;5074885;28;20166;-50
2021/10/16 01:53:11;;;;;;;9.00;8.10;;;11.90;99.90;;;;;;5075019;28;20545;-50
2021/10/16 01:55:38;;;;;;;10.13;9.13;;;11.90;99.90;;;;;;5074802;28;20495;-50
2021/10/16 01:58:06;;;;;;;10.57;9.47;;;11.80;99.90;;;;;;5074511;28;20440;-51
2021/10/16 02:00:31;;;;;;;8.80;7.90;;;11.90;99.90;;;;;;5075217;28;20412;-51
2021/10/16 02:02:57;;;;;;;13.73;9.90;;;11.80;99.90;;;;;;5075141;28;20403;-56
2021/10/16 02:05:23;;;;;;;11.10;9.53;;;11.80;99.90;;;;;;5074909;28;20257;-51
2021/10/16 02:07:48;;;;;;;9.03;8.20;;;11.80;99.90;;;;;;5075098;28;20189;-52
2021/10/16 02:10:14;;;;;;;10.33;9.23;;;11.80;99.90;;;;;;5074863;28;20219;-53
2021/10/16 02:12:40;;;;;;;9.77;8.70;;;11.80;99.90;;;;;;5074982;28;20173;-50
2021/10/16 02:15:05;;;;;;;10.63;8.80;;;11.80;99.90;;;;;;5074503;28;20619;-53
2021/10/16 02:17:31;;;;;;;8.70;7.63;;;11.80;99.90;;;;;;5074620;28;20309;-52
2021/10/16 02:19:57;;;;;;;8.60;7.77;;;11.70;99.90;;;;;;5074363;28;20593;-51
2021/10/16 02:22:22;;;;;;;10.73;9.30;;;11.70;99.90;;;;;;5074554;28;20166;-50
2021/10/16 02:24:48;;;;;;;9.00;7.37;;;11.60;99.90;;;;;;5074793;28;20658;-51
2021/10/16 02:27:14;;;;;;;8.83;8.03;;;11.60;99.90;;;;;;5074342;28;20609;-53
2021/10/16 02:29:40;;;;;;;8.97;8.00;;;11.50;99.90;;;;;;5074146;28;20400;-51
2021/10/16 02:32:06;;;;;;;11.37;7.90;;;11.50;99.90;;;;;;5074422;28;20533;-54
2021/10/16 02:34:31;;;;;;;7.93;7.23;;;11.50;99.90;;;;;;5074357;28;20198;-52
2021/10/16 02:36:57;;;;;;;9.77;7.90;;;11.60;99.90;;;;;;5074202;28;20182;-50
2021/10/16 02:39:23;;;;;;;8.87;7.97;;;11.60;99.90;;;;;;5074447;28;20637;-50
2021/10/16 02:41:48;;;;;;;10.33;7.93;;;11.70;99.90;;;;;;5074449;28;20168;-49
2021/10/16 02:44:14;;;;;;;8.53;7.43;;;11.70;99.90;;;;;;5074043;28;20195;-56
2021/10/16 02:46:39;;;;;;;8.63;6.97;;;11.80;99.90;;;;;;5074291;28;20172;-53
2021/10/16 02:49:05;;;;;;;7.67;6.97;;;11.70;99.90;;;;;;5074204;28;20176;-53
2021/10/16 02:51:31;;;;;;;7.57;6.80;;;11.80;99.90;;;;;;5074241;28;20172;-52
2021/10/16 02:53:56;;;;;;;7.90;7.10;;;11.80;99.90;;;;;;5074110;28;20550;-53
2021/10/16 02:56:22;;;;;;;7.33;6.67;;;11.90;99.90;;;;;;5074023;28;20182;-52
2021/10/16 02:58:47;;;;;;;8.97;8.07;;;11.90;99.90;;;;;;5120557;22;20724;-51
2021/10/16 03:01:13;;;;;;;7.10;6.43;;;11.90;99.90;;;;;;5117540;28;20582;-56
2021/10/16 03:03:38;;;;;;;8.30;7.30;;;11.90;99.90;;;;;;5094822;28;20178;-53
2021/10/16 03:06:04;;;;;;;10.27;9.00;;;11.90;99.90;;;;;;5094788;28;20177;-51
2021/10/16 03:08:30;;;;;;;8.60;7.80;;;12.00;99.90;;;;;;5080961;28;20201;-50
2021/10/16 03:10:55;;;;;;;9.20;8.30;;;12.00;99.90;;;;;;5073891;28;20171;-51
2021/10/16 03:13:21;;;;;;;8.80;8.00;;;12.00;99.90;;;;;;5073648;28;20206;-50
2021/10/16 03:15:47;;;;;;;9.50;8.50;;;12.00;99.90;;;;;;5074167;28;20601;-52
2021/10/16 03:18:12;;;;;;;9.33;8.43;;;12.00;99.90;;;;;;5073850;28;20221;-52
2021/10/16 03:20:38;;;;;;;9.57;8.67;;;12.00;99.90;;;;;;5074676;28;20203;-54
2021/10/16 03:23:03;;;;;;;10.43;9.13;;;12.00;99.90;;;;;;5074311;28;20224;-56
2021/10/16 03:25:29;;;;;;;9.20;8.30;;;12.00;99.90;;;;;;5074209;28;20198;-55
2021/10/16 03:27:55;;;;;;;9.67;8.63;;;11.90;99.90;;;;;;5089348;28;20235;-51
2021/10/16 03:30:20;;;;;;;9.30;8.40;;;11.80;99.90;;;;;;5100534;28;20178;-55
2021/10/16 03:32:46;;;;;;;8.53;7.73;;;11.80;99.90;;;;;;5108080;28;20204;-55
2021/10/16 03:35:12;;;;;;;11.20;8.40;;;11.90;99.90;;;;;;5107433;28;20180;-55
2021/10/16 03:37:37;;;;;;;9.60;8.77;;;11.80;99.90;;;;;;5108330;28;20180;-56
2021/10/16 03:40:03;;;;;;;9.30;8.40;;;11.80;99.90;;;;;;5102601;28;20161;-53
2021/10/16 03:42:29;;;;;;;12.13;10.03;;;11.90;99.90;;;;;;5105424;28;20186;-54
2021/10/16 03:44:55;;;;;;;8.27;7.30;;;11.90;99.90;;;;;;5104709;28;20415;-52
2021/10/16 03:47:20;;;;;;;10.70;9.23;;;11.70;99.90;;;;;;5102308;28;20181;-56
2021/10/16 03:49:46;;;;;;;10.60;8.50;;;11.70;99.90;;;;;;5093108;28;20244;-52
2021/10/16 03:52:11;;;;;;;11.30;10.13;;;11.60;99.90;;;;;;5093809;28;20171;-54
2021/10/16 03:54:37;;;;;;;12.50;11.13;;;11.60;99.90;;;;;;5093634;28;20188;-52
2021/10/16 03:57:03;;;;;;;10.10;9.00;;;11.60;99.90;;;;;;5093509;28;20659;-55
2021/10/16 03:59:28;;;;;;;9.87;8.30;;;11.60;99.90;;;;;;5093588;28;20162;-55
2021/10/16 04:01:54;;;;;;;10.23;9.23;;;11.60;99.90;;;;;;5093972;28;20264;-55
2021/10/16 04:04:19;;;;;;;11.27;10.17;;;11.60;99.90;;;;;;5093415;28;20240;-53
2021/10/16 04:06:45;;;;;;;13.30;11.90;;;11.60;99.90;;;;;;5093615;28;20255;-52
2021/10/16 04:09:11;;;;;;;11.97;10.77;;;11.60;99.90;;;;;;5093419;28;20193;-56
2021/10/16 04:11:36;;;;;;;13.43;11.90;;;11.50;99.90;;;;;;5093346;28;20261;-52
2021/10/16 04:14:02;;;;;;;15.10;11.00;;;11.50;99.90;;;;;;5093064;28;20189;-52
2021/10/16 04:16:27;;;;;;;14.40;12.90;;;11.50;99.90;;;;;;5093280;28;20185;-55
2021/10/16 04:18:53;;;;;;;12.67;11.33;;;11.60;99.90;;;;;;5093055;28;20188;-52
2021/10/16 04:21:18;;;;;;;12.27;9.50;;;11.50;99.90;;;;;;5093431;28;20164;-51
2021/10/16 04:23:44;;;;;;;12.80;11.50;;;11.40;99.90;;;;;;5094040;28;20252;-53
2021/10/16 04:26:16;;;;;;;13.90;11.67;;;11.40;99.90;;;;;;5094452;28;20184;-58
2021/10/16 04:28:42;;;;;;;15.07;10.80;;;11.50;99.90;;;;;;5094072;28;20189;-55
2021/10/16 04:31:07;;;;;;;12.20;11.00;;;11.50;99.90;;;;;;5093076;28;20396;-55
2021/10/16 04:33:33;;;;;;;14.37;12.83;;;11.60;99.90;;;;;;5093414;28;20198;-51
2021/10/16 04:36:00;;;;;;;13.93;12.43;;;11.60;99.90;;;;;;5093118;28;20222;-55
2021/10/16 04:38:26;;;;;;;12.37;10.53;;;11.60;99.90;;;;;;5093111;28;20174;-51
2021/10/16 04:40:51;;;;;;;12.63;11.13;;;11.50;99.90;;;;;;5093196;28;20419;-53
2021/10/16 04:43:17;;;;;;;11.53;10.40;;;11.40;99.90;;;;;;5093426;28;20165;-51
2021/10/16 04:45:45;;;;;;;11.40;10.30;;;11.30;99.90;;;;;;5092867;28;20195;-51
2021/10/16 04:48:11;;;;;;;16.50;13.10;;;11.30;99.90;;;;;;5093634;28;20188;-51
2021/10/16 04:50:36;;;;;;;19.63;15.70;;;11.40;99.90;;;;;;5094208;28;20898;-51
2021/10/16 04:53:02;;;;;;;19.40;14.63;;;11.30;99.90;;;;;;5093562;28;20189;-53
2021/10/16 04:55:28;;;;;;;16.13;14.47;;;11.40;99.90;;;;;;5093067;28;20193;-52
2021/10/16 04:57:53;;;;;;;20.83;16.47;;;11.40;99.90;;;;;;5092990;28;20284;-51
2021/10/16 05:00:19;;;;;;;14.30;11.80;;;11.50;99.90;;;;;;5093026;28;20254;-50
2021/10/16 05:02:45;;;;;;;16.07;14.37;;;11.50;99.90;;;;;;5096229;28;20241;-52
2021/10/16 05:05:10;;;;;;;17.03;13.70;;;11.50;99.90;;;;;;5096507;28;20619;-51
2021/10/16 05:07:36;;;;;;;16.77;13.47;;;11.60;99.90;;;;;;5079889;28;20193;-50
2021/10/16 05:10:03;;;;;;;16.67;13.00;;;11.60;99.90;;;;;;5076443;28;20172;-51
2021/10/16 05:12:28;;;;;;;15.20;13.17;;;11.50;99.90;;;;;;5076120;28;20510;-53
2021/10/16 05:14:54;;;;;;;17.10;15.03;;;11.40;99.90;;;;;;5075869;28;20404;-51
2021/10/16 05:17:20;;;;;;;15.87;14.07;;;11.30;99.90;;;;;;5076315;28;20720;-51
2021/10/16 05:19:45;;;;;;;18.70;16.20;;;11.40;99.90;;;;;;5075927;28;20162;-54
2021/10/16 05:22:11;;;;;;;20.47;16.87;;;11.40;99.90;;;;;;5075985;28;20166;-52
2021/10/16 05:24:36;;;;;;;16.37;13.80;;;11.30;99.90;;;;;;5076595;28;20585;-54
2021/10/16 05:27:02;;;;;;;17.60;15.10;;;11.30;99.90;;;;;;5083394;28;20178;-55
2021/10/16 05:29:28;;;;;;;18.90;15.50;;;11.30;99.90;;;;;;5096231;28;20633;-52
2021/10/16 05:31:53;;;;;;;21.30;16.87;;;11.40;99.90;;;;;;5096242;28;20180;-53
2021/10/16 05:34:19;;;;;;;17.77;14.63;;;11.40;99.90;;;;;;5095684;28;20227;-53
2021/10/16 05:36:45;;;;;;;18.43;15.30;;;11.50;99.90;;;;;;5096121;28;20168;-51
2021/10/16 05:39:10;;;;;;;15.77;13.97;;;11.60;99.90;;;;;;5096132;28;20190;-50
2021/10/16 05:41:36;;;;;;;17.87;15.53;;;11.60;99.90;;;;;;5095981;28;20165;-51
2021/10/16 05:44:01;;;;;;;13.00;11.63;;;11.70;99.90;;;;;;5096039;28;20654;-54
2021/10/16 05:46:27;;;;;;;13.27;11.97;;;11.60;99.90;;;;;;5096164;28;20170;-54
2021/10/16 05:48:53;;;;;;;11.83;10.20;;;11.50;99.90;;;;;;5095931;28;20208;-53
2021/10/16 05:51:18;;;;;;;13.10;11.63;;;11.50;99.90;;;;;;5095729;28;20634;-54
2021/10/16 05:53:44;;;;;;;18.37;15.40;;;11.60;99.90;;;;;;5065929;28;20210;-53
2021/10/16 05:56:10;;;;;;;14.27;12.63;;;11.50;99.90;;;;;;5095658;28;20584;-55
2021/10/16 05:58:36;;;;;;;14.33;12.33;;;11.40;99.90;;;;;;5095476;28;20455;-55
2021/10/16 06:01:02;;;;;;;15.37;13.77;;;11.40;99.90;;;;;;5095400;28;20167;-55
2021/10/16 06:03:28;;;;;;;16.77;13.20;;;11.40;99.90;;;;;;5095978;28;20407;-55
2021/10/16 06:05:57;;;;;;;14.73;12.37;;;11.50;99.90;;;;;;5095298;28;20411;-53
2021/10/16 06:08:23;;;;;;;14.83;13.33;;;11.70;99.90;;;;;;5095448;28;20194;-53
2021/10/16 06:10:48;;;;;;;14.60;12.80;;;11.70;99.90;;;;;;5095379;28;20403;-53
2021/10/16 06:13:14;;;;;;;14.87;13.37;;;11.60;99.90;;;;;;5095206;28;20202;-50
2021/10/16 06:15:40;;;;;;;14.93;12.63;;;11.70;99.90;;;;;;5095583;28;20503;-51
2021/10/16 06:18:10;;;;;;;15.30;13.40;;;11.70;99.90;;;;;;5095566;28;20189;-56
2021/10/16 06:20:35;;;;;;;13.80;12.40;;;11.80;99.90;;;;;;5094878;28;20168;-53
2021/10/16 06:23:01;;;;;;;14.73;12.67;;;11.80;99.90;;;;;;5095368;28;20411;-54
2021/10/16 06:25:27;;;;;;;13.90;12.43;;;11.80;99.90;;;;;;5095087;28;20171;-53
2021/10/16 06:27:52;;;;;;;15.33;12.83;;;11.80;99.90;;;;;;5094887;28;20293;-55
2021/10/16 06:30:18;;;;;;;11.23;10.10;;;11.80;99.90;;;;;;5094764;28;20432;-54
2021/10/16 06:32:44;;;;;;;15.07;11.77;;;11.90;99.90;;;;;;5094809;28;20181;-54
2021/10/16 06:35:09;;;;;;;14.10;11.60;;;11.80;99.90;;;;;;5094613;28;20166;-54
2021/10/16 06:37:35;;;;;;;11.20;10.00;;;11.80;99.90;;;;;;5095432;28;20192;-54
2021/10/16 06:40:01;;;;;;;14.87;12.30;;;11.70;99.90;;;;;;5094821;28;20582;-53
2021/10/16 06:42:27;;;;;;;13.90;12.40;;;11.60;99.90;;;;;;5094763;28;20241;-57
2021/10/16 06:44:53;;;;;;;14.17;10.93;;;11.60;99.90;;;;;;5094571;28;20198;-55
2021/10/16 06:47:19;;;;;;;13.67;12.00;;;11.60;99.90;;;;;;5094475;28;20463;-56
2021/10/16 06:49:44;;;;;;;13.40;11.00;;;11.60;99.90;;;;;;5094097;28;20184;-52
2021/10/16 06:52:10;;;;;;;11.07;9.97;;;11.70;99.90;;;;;;5094291;28;20709;-54
2021/10/16 06:54:35;;;;;;;12.83;11.63;;;11.80;99.90;;;;;;5094569;28;20195;-55
2021/10/16 06:57:01;;;;;;;13.50;11.57;;;11.70;99.90;;;;;;5094512;28;20180;-56
2021/10/16 06:59:26;;;;;;;13.13;10.93;;;11.70;99.90;;;;;;5094114;28;20171;-56
2021/10/16 07:01:52;;;;;;;13.10;11.27;;;11.70;99.90;;;;;;5094569;28;20740;-56
2021/10/16 07:04:17;;;;;;;12.97;11.67;;;11.70;99.90;;;;;;5088508;28;20639;-55
2021/10/16 07:06:43;;;;;;;13.73;12.30;;;11.80;99.90;;;;;;5073892;28;20227;-55
2021/10/16 07:09:09;;;;;;;13.30;11.00;;;11.90;99.90;;;;;;5073844;28;20185;-56
2021/10/16 07:11:35;;;;;;;13.60;10.80;;;12.00;99.90;;;;;;5074244;28;20264;-55
2021/10/16 07:14:00;;;;;;;12.30;11.10;;;12.10;99.90;;;;;;5073516;28;20189;-55
2021/10/16 07:16:26;;;;;;;24.13;21.57;;;12.00;99.90;;;;;;5074105;28;20422;-52
2021/10/16 07:18:52;;;;;;;26.90;24.50;;;12.10;99.90;;;;;;5073644;28;20182;-54
2021/10/16 07:21:17;;;;;;;30.40;27.60;;;12.10;99.90;;;;;;5073925;28;20162;-55
2021/10/16 07:23:45;;;;;;;16.67;15.07;;;12.20;99.90;;;;;;5072772;28;20166;-52
2021/10/16 07:26:11;;;;;;;13.23;11.93;;;12.10;99.90;;;;;;5073906;28;20166;-48
2021/10/16 07:28:37;;;;;;;12.37;11.20;;;12.10;99.90;;;;;;5093696;28;20807;-51
2021/10/16 07:31:03;;;;;;;14.20;11.37;;;12.10;99.90;;;;;;5093264;28;20403;-56
2021/10/16 07:33:28;;;;;;;13.13;11.87;;;12.10;99.90;;;;;;5093637;28;20223;-54
2021/10/16 07:35:54;;;;;;;15.60;14.03;;;12.10;99.90;;;;;;5093601;28;20229;-52
2021/10/16 07:38:19;;;;;;;14.17;11.97;;;12.00;99.90;;;;;;5093579;28;20679;-52
2021/10/16 07:40:45;;;;;;;17.37;15.57;;;11.80;99.90;;;;;;5093900;28;20227;-54
2021/10/16 07:43:11;;;;;;;11.50;10.37;;;11.80;99.90;;;;;;5094045;28;20169;-54
2021/10/16 07:45:37;;;;;;;14.00;12.60;;;11.90;99.90;;;;;;5093452;28;20162;-55
2021/10/16 07:48:03;;;;;;;14.73;13.27;;;12.10;99.90;;;;;;5093728;28;20434;-55
2021/10/16 07:50:29;;;;;;;15.77;11.57;;;12.20;99.90;;;;;;5093294;28;20449;-51
2021/10/16 07:52:54;;;;;;;14.03;12.53;;;12.20;99.90;;;;;;5093744;28;20474;-55
2021/10/16 07:55:20;;;;;;;12.77;11.47;;;12.20;99.90;;;;;;5093276;28;20162;-54
2021/10/16 07:57:46;;;;;;;13.13;11.07;;;12.20;99.90;;;;;;5093181;28;20213;-52
2021/10/16 08:00:11;;;;;;;13.13;11.83;;;12.10;99.90;;;;;;5093175;28;20217;-56
2021/10/16 08:02:38;;;;;;;12.50;11.20;;;12.30;99.90;;;;;;5093435;28;20260;-52
2021/10/16 08:05:04;;;;;;;14.13;12.47;;;12.40;99.90;;;;;;5093045;28;20164;-55
2021/10/16 08:07:30;;;;;;;14.07;12.50;;;12.40;99.90;;;;;;5093237;28;20930;-54
2021/10/16 08:09:55;;;;;;;14.50;12.97;;;12.30;99.90;;;;;;5094057;28;20445;-55
2021/10/16 08:12:22;;;;;;;13.43;12.13;;;12.20;99.90;;;;;;5093165;28;20171;-55
2021/10/16 08:14:51;;;;;;;13.77;12.37;;;12.20;99.90;;;;;;5093032;28;20275;-52
2021/10/16 08:17:16;;;;;;;13.33;12.00;;;12.30;99.90;;;;;;5093167;28;20450;-53
2021/10/16 08:19:42;;;;;;;15.30;13.40;;;12.30;99.90;;;;;;5093067;28;20459;-51
2021/10/16 08:22:14;;;;;;;15.53;13.77;;;12.20;99.90;;;;;;5093186;28;20252;-53
2021/10/16 08:24:39;;;;;;;17.03;15.23;;;12.30;99.90;;;;;;5093286;28;20141;-54
2021/10/16 08:27:05;;;;;;;15.63;13.63;;;12.30;99.90;;;;;;5093212;28;20464;-55
2021/10/16 08:29:30;;;;;;;18.50;15.27;;;12.30;99.90;;;;;;5092896;28;20605;-54
2021/10/16 08:31:56;;;;;;;24.57;18.70;;;12.30;99.90;;;;;;5093007;28;20244;-52
2021/10/16 08:34:21;;;;;;;30.50;23.53;;;12.50;99.90;;;;;;5092899;28;20723;-55
2021/10/16 08:36:47;;;;;;;28.83;21.40;;;12.50;99.90;;;;;;5096841;28;20208;-55
2021/10/16 08:39:13;;;;;;;35.10;23.60;;;12.20;99.90;;;;;;5097278;28;20729;-55
2021/10/16 08:41:41;;;;;;;24.10;18.50;;;12.00;99.90;;;;;;5097198;28;20482;-54
2021/10/16 08:44:08;;;;;;;24.20;18.77;;;12.20;99.90;;;;;;5096965;28;20168;-52
2021/10/16 08:46:41;;;;;;;29.97;23.17;;;12.30;99.90;;;;;;5085249;28;20433;-54
2021/10/16 08:49:09;;;;;;;27.67;21.20;;;12.30;99.90;;;;;;5076911;28;20415;-55
2021/10/16 08:51:34;;;;;;;28.30;21.10;;;12.30;99.90;;;;;;5076403;28;20410;-51
2021/10/16 08:54:00;;;;;;;28.50;19.27;;;12.30;99.90;;;;;;5076821;28;20541;-55
2021/10/16 08:56:26;;;;;;;26.67;20.03;;;12.40;99.90;;;;;;5081183;28;20173;-54
2021/10/16 08:58:51;;;;;;;46.43;24.60;;;12.50;99.90;;;;;;5098007;28;20280;-56
2021/10/16 09:01:17;;;;;;;32.73;24.17;;;12.60;99.90;;;;;;5096352;28;20227;-55
2021/10/16 09:03:47;;;;;;;41.13;23.83;;;12.60;99.90;;;;;;5096753;28;20176;-56
2021/10/16 09:06:30;;;;;;;39.50;26.07;;;12.40;99.90;;;;;;5096245;28;20424;-52
2021/10/16 09:08:56;;;;;;;33.80;21.37;;;12.10;99.90;;;;;;5096814;28;20553;-52
2021/10/16 09:11:28;;;;;;;36.10;22.53;;;12.20;99.90;;;;;;5096428;28;20486;-54
2021/10/16 09:14:06;;;;;;;31.23;22.00;;;12.10;99.90;;;;;;5096485;28;20564;-54
2021/10/16 09:16:39;;;;;;;29.57;21.53;;;12.00;99.90;;;;;;5096045;28;20405;-55
2021/10/16 09:19:10;;;;;;;30.17;21.60;;;12.10;99.90;;;;;;5096389;28;20902;-56
2021/10/16 09:21:38;;;;;;;29.73;21.27;;;12.10;99.90;;;;;;5095943;28;20397;-55
2021/10/16 09:24:08;;;;;;;29.53;20.63;;;12.20;99.90;;;;;;5096315;28;20403;-55
2021/10/16 09:26:36;;;;;;;31.43;21.60;;;12.50;99.90;;;;;;5096180;28;20458;-54
2021/10/16 09:29:03;;;;;;;29.17;22.40;;;12.60;99.90;;;;;;5096195;28;20513;-54
2021/10/16 09:31:52;;;;;;;30.03;20.30;;;12.70;99.90;;;;;;5095652;28;20405;-56
2021/10/16 09:34:24;;;;;;;32.20;23.83;;;12.60;99.90;;;;;;5095192;28;20455;-55
2021/10/16 09:36:50;;;;;;;30.20;20.57;;;12.50;99.90;;;;;;5095790;28;20467;-53
2021/10/16 09:39:17;;;;;;;29.60;21.07;;;12.60;99.90;;;;;;5096076;28;20419;-52
2021/10/16 09:41:44;;;;;;;32.07;22.53;;;12.70;99.90;;;;;;5096133;28;20900;-54
2021/10/16 09:44:22;;;;;;;30.20;23.83;;;12.50;99.90;;;;;;5095976;28;20449;-51
2021/10/16 09:46:56;;;;;;;24.30;20.70;;;12.70;99.90;;;;;;5094848;28;20422;-51
2021/10/16 09:49:28;;;;;;;23.93;19.77;;;12.70;99.90;;;;;;5095639;28;20399;-51
2021/10/16 09:51:54;;;;;;;26.47;22.00;;;12.90;99.90;;;;;;5095727;28;20427;-55
2021/10/16 09:54:19;;;;;;;29.87;23.60;;;13.10;99.90;;;;;;5095458;28;20443;-55
2021/10/16 09:56:46;;;;;;;23.67;19.33;;;13.20;99.90;;;;;;5095704;28;20257;-51
2021/10/16 09:59:16;;;;;;;28.10;19.70;;;13.10;99.90;;;;;;5095324;28;20197;-53
2021/10/16 10:01:42;;;;;;;22.53;20.00;;;13.10;99.90;;;;;;5095052;28;20414;-53
2021/10/16 10:04:10;;;;;;;29.87;21.27;;;13.30;99.90;;;;;;5095350;28;20399;-56
2021/10/16 10:06:36;;;;;;;23.33;20.37;;;13.40;99.90;;;;;;5094959;28;20440;-53
2021/10/16 10:09:03;;;;;;;22.70;20.30;;;13.50;99.90;;;;;;5095059;28;20466;-55
2021/10/16 10:11:30;;;;;;;23.53;19.80;;;13.50;99.90;;;;;;5095359;28;20399;-54
2021/10/16 10:13:56;;;;;;;24.63;18.63;;;13.40;99.90;;;;;;5095061;28;20447;-52
2021/10/16 10:16:22;;;;;;;23.40;19.40;;;13.40;99.90;;;;;;5094924;28;20396;-51
2021/10/16 10:19:01;;;;;;;26.00;19.80;;;13.70;99.90;;;;;;5095618;28;20952;-51
2021/10/16 10:21:38;;;;;;;23.03;19.60;;;13.80;99.90;;;;;;5095323;28;20617;-54
2021/10/16 10:24:06;;;;;;;24.00;19.03;;;14.30;99.90;;;;;;5095566;28;20411;-53
2021/10/16 10:26:37;;;;;;;22.87;19.90;;;14.30;99.90;;;;;;5096496;28;20926;-51
2021/10/16 10:29:13;;;;;;;23.13;20.73;;;14.10;99.90;;;;;;5095869;28;20427;-52
2021/10/16 10:31:58;;;;;;;24.17;19.70;;;14.20;99.90;;;;;;5095085;28;20386;-52
2021/10/16 10:34:39;;;;;;;20.53;17.70;;;14.50;99.90;;;;;;5095545;28;20541;-52
2021/10/16 10:37:06;;;;;;;20.83;17.83;;;14.40;99.90;;;;;;5094676;28;20419;-52
2021/10/16 10:39:32;;;;;;;22.60;19.63;;;14.80;99.90;;;;;;5094864;28;20403;-51
2021/10/16 10:42:22;;;;;;;20.43;18.10;;;15.00;99.90;;;;;;5094780;28;20450;-52
2021/10/16 10:44:57;;;;;;;21.43;17.70;;;15.00;99.90;;;;;;5094051;28;20422;-53
2021/10/16 10:47:22;;;;;;;20.57;18.37;;;15.00;99.90;;;;;;5095729;28;20927;-52
2021/10/16 10:49:49;;;;;;;21.80;18.67;;;15.20;99.90;;;;;;5094882;28;20425;-51
2021/10/16 10:52:15;;;;;;;20.30;18.13;;;15.50;99.90;;;;;;5095060;28;20655;-53
2021/10/16 10:55:05;;;;;;;21.83;18.60;;;15.40;99.90;;;;;;5094481;28;20449;-52
2021/10/16 10:57:47;;;;;;;22.87;20.57;;;15.90;99.90;;;;;;5091997;28;20205;-51
2021/10/16 11:00:15;;;;;;;22.30;19.43;;;15.90;99.90;;;;;;5093428;28;20397;-52
2021/10/16 11:02:41;;;;;;;20.33;18.30;;;16.20;99.90;;;;;;5094556;28;20406;-55
2021/10/16 11:05:32;;;;;;;20.13;17.53;;;16.10;99.90;;;;;;5094179;28;20407;-54
2021/10/16 11:08:04;;;;;;;20.30;18.20;;;16.10;99.90;;;;;;5094253;28;20411;-51
2021/10/16 11:10:30;;;;;;;18.57;16.67;;;16.00;99.90;;;;;;5094474;28;20414;-55
2021/10/16 11:12:56;;;;;;;19.70;17.20;;;16.10;99.90;;;;;;5094661;28;20767;-54
2021/10/16 11:15:22;;;;;;;20.50;18.53;;;16.50;99.90;;;;;;5094399;28;20402;-52
2021/10/16 11:17:49;;;;;;;21.83;19.50;;;16.20;99.90;;;;;;5094461;28;20430;-51
2021/10/16 11:20:27;;;;;;;19.27;17.47;;;16.10;99.90;;;;;;5094446;28;20173;-51
2021/10/16 11:22:55;;;;;;;19.27;17.20;;;15.90;99.90;;;;;;5092814;28;20424;-49
2021/10/16 11:25:22;;;;;;;20.57;18.30;;;15.60;99.90;;;;;;5083106;28;20926;-53
2021/10/16 11:28:04;;;;;;;19.60;17.57;;;16.00;99.90;;;;;;5073935;28;20758;-56
2021/10/16 11:30:31;;;;;;;21.53;17.77;;;15.90;99.90;;;;;;5073963;28;20762;-55
2021/10/16 11:33:08;;;;;;;20.80;18.77;;;15.80;99.90;;;;;;5072373;28;20420;-54
2021/10/16 11:35:35;;;;;;;22.60;20.33;;;15.60;99.90;;;;;;5073500;28;20883;-52
2021/10/16 11:38:01;;;;;;;18.20;16.50;;;15.60;99.90;;;;;;5073792;28;20793;-51
2021/10/16 11:40:29;;;;;;;21.30;18.03;;;15.70;99.90;;;;;;5073726;28;20395;-51
2021/10/16 11:43:00;;;;;;;20.30;18.30;;;16.50;99.90;;;;;;5074143;28;20173;-54
2021/10/16 11:45:31;;;;;;;16.93;15.27;;;17.80;99.90;;;;;;5073683;28;20400;-51
2021/10/16 11:48:00;;;;;;;17.03;15.43;;;19.70;99.90;;;;;;5073725;28;20420;-52
2021/10/16 11:50:28;;;;;;;17.13;15.53;;;21.50;99.90;;;;;;5073306;28;20403;-52
2021/10/16 11:53:05;;;;;;;17.43;15.60;;;22.60;97.60;;;;;;5075250;28;20399;-51
2021/10/16 11:55:32;;;;;;;17.70;15.90;;;22.80;97.30;;;;;;5093468;28;20403;-51
2021/10/16 11:58:13;;;;;;;18.03;16.00;;;23.60;95.60;;;;;;5093364;28;20458;-52
2021/10/16 12:00:42;;;;;;;15.57;14.13;;;23.00;95.80;;;;;;5093387;28;20388;-50
2021/10/16 12:03:13;;;;;;;16.30;14.60;;;23.70;94.90;;;;;;5093568;28;20407;-51
2021/10/16 12:05:40;;;;;;;15.97;14.43;;;23.50;94.40;;;;;;5093122;28;20448;-53
2021/10/16 12:08:46;;;;;;;15.23;13.93;;;22.30;96.20;;;;;;5093754;28;20525;-55
2021/10/16 12:11:20;;;;;;;16.60;15.10;;;22.30;96.30;;;;;;5056236;28;20437;-54
2021/10/16 12:13:56;;;;;;;13.83;12.73;;;22.50;96.00;;;;;;5097440;28;20455;-53
2021/10/16 12:16:23;;;;;;;17.40;15.60;;;23.20;95.90;;;;;;5097539;28;20482;-55
2021/10/16 12:18:58;;;;;;;14.40;13.00;;;24.20;93.70;;;;;;5097404;28;20454;-54
2021/10/16 12:21:32;;;;;;;13.10;11.90;;;24.70;93.00;;;;;;5097237;28;20375;-55
2021/10/16 12:24:09;;;;;;;14.70;13.20;;;26.00;91.30;;;;;;5097237;28;20406;-55
2021/10/16 12:26:37;;;;;;;12.37;11.27;;;26.50;88.70;;;;;;5097622;28;20394;-51
2021/10/16 12:29:06;;;;;;;12.60;11.50;;;26.10;89.60;;;;;;5097244;28;20430;-55
2021/10/16 12:31:49;;;;;;;15.03;13.83;;;25.40;88.90;;;;;;5097122;28;20418;-55
2021/10/16 12:34:16;;;;;;;14.20;12.70;;;26.60;85.80;;;;;;5097237;28;20446;-51